sensor_id;sensor_type;location;lat;lon;timestamp;P1;durP1;ratioP1;P2;durP2;ratioP2
434;SDS011;204;48.942;9.256;2023-07-08T00:00:47;6.93;;;6.37;;
434;SDS011;204;48.942;9.256;2023-07-08T00:03:13;8.17;;;7.33;;
434;SDS011;204;48.942;9.256;2023-07-08T00:05:39;9.10;;;6.87;;
434;SDS011;204;48.942;9.256;2023-07-08T00:08:07;8.70;;;6.57;;
434;SDS011;204;48.942;9.256;2023-07-08T00:10:40;8.60;;;7.50;;
434;SDS011;204;48.942;9.256;2023-07-08T00:13:05;9.40;;;7.30;;
434;SDS011;204;48.942;9.256;2023-07-08T00:15:33;10.87;;;8.30;;
434;SDS011;204;48.942;9.256;2023-07-08T00:17:59;8.27;;;6.73;;
434;SDS011;204;48.942;9.256;2023-07-08T00:20:41;13.70;;;7.63;;
434;SDS011;204;48.942;9.256;2023-07-08T00:23:09;12.37;;;8.53;;
434;SDS011;204;48.942;9.256;2023-07-08T00:25:35;8.53;;;6.37;;
434;SDS011;204;48.942;9.256;2023-07-08T00:28:01;9.90;;;8.93;;
434;SDS011;204;48.942;9.256;2023-07-08T00:30:30;8.90;;;7.00;;
434;SDS011;204;48.942;9.256;2023-07-08T00:32:57;11.50;;;7.90;;
434;SDS011;204;48.942;9.256;2023-07-08T00:37:56;8.47;;;8.00;;
434;SDS011;204;48.942;9.256;2023-07-08T00:40:31;12.73;;;9.90;;
434;SDS011;204;48.942;9.256;2023-07-08T00:42:58;9.20;;;7.53;;
434;SDS011;204;48.942;9.256;2023-07-08T00:48:12;9.17;;;7.50;;
434;SDS011;204;48.942;9.256;2023-07-08T00:50:45;8.10;;;6.60;;
434;SDS011;204;48.942;9.256;2023-07-08T00:53:29;10.60;;;8.27;;
434;SDS011;204;48.942;9.256;2023-07-08T00:56:00;7.60;;;7.20;;
434;SDS011;204;48.942;9.256;2023-07-08T00:58:32;9.43;;;7.50;;
434;SDS011;204;48.942;9.256;2023-07-08T01:01:01;9.77;;;7.33;;
434;SDS011;204;48.942;9.256;2023-07-08T01:03:30;10.03;;;6.90;;
434;SDS011;204;48.942;9.256;2023-07-08T01:05:58;9.40;;;7.67;;
434;SDS011;204;48.942;9.256;2023-07-08T01:08:25;7.90;;;6.60;;
434;SDS011;204;48.942;9.256;2023-07-08T01:10:54;8.10;;;7.17;;
434;SDS011;204;48.942;9.256;2023-07-08T01:13:25;11.83;;;8.27;;
434;SDS011;204;48.942;9.256;2023-07-08T01:15:51;11.40;;;8.60;;
434;SDS011;204;48.942;9.256;2023-07-08T01:18:17;9.80;;;8.10;;
434;SDS011;204;48.942;9.256;2023-07-08T01:20:47;9.80;;;8.10;;
434;SDS011;204;48.942;9.256;2023-07-08T01:23:13;8.93;;;7.90;;
434;SDS011;204;48.942;9.256;2023-07-08T01:25:40;9.10;;;7.67;;
434;SDS011;204;48.942;9.256;2023-07-08T01:28:07;8.53;;;7.20;;
434;SDS011;204;48.942;9.256;2023-07-08T01:30:33;10.27;;;8.50;;
434;SDS011;204;48.942;9.256;2023-07-08T01:33:00;9.17;;;7.10;;
434;SDS011;204;48.942;9.256;2023-07-08T01:35:29;7.80;;;7.10;;
434;SDS011;204;48.942;9.256;2023-07-08T01:37:59;9.13;;;7.50;;
434;SDS011;204;48.942;9.256;2023-07-08T01:40:29;8.10;;;6.23;;
434;SDS011;204;48.942;9.256;2023-07-08T01:42:55;7.57;;;6.67;;
434;SDS011;204;48.942;9.256;2023-07-08T01:45:22;9.77;;;7.17;;
434;SDS011;204;48.942;9.256;2023-07-08T01:47:53;8.67;;;6.97;;
434;SDS011;204;48.942;9.256;2023-07-08T01:50:23;8.67;;;6.30;;
434;SDS011;204;48.942;9.256;2023-07-08T01:52:51;8.80;;;7.70;;
434;SDS011;204;48.942;9.256;2023-07-08T01:55:24;7.00;;;6.60;;
434;SDS011;204;48.942;9.256;2023-07-08T01:57:53;7.40;;;6.63;;
434;SDS011;204;48.942;9.256;2023-07-08T02:00:19;7.10;;;6.20;;
434;SDS011;204;48.942;9.256;2023-07-08T02:02:45;7.90;;;6.60;;
434;SDS011;204;48.942;9.256;2023-07-08T02:05:11;6.53;;;5.80;;
434;SDS011;204;48.942;9.256;2023-07-08T02:07:37;7.40;;;5.93;;
434;SDS011;204;48.942;9.256;2023-07-08T02:10:03;7.83;;;6.87;;
434;SDS011;204;48.942;9.256;2023-07-08T02:12:29;11.47;;;7.33;;
434;SDS011;204;48.942;9.256;2023-07-08T02:14:54;8.60;;;7.20;;
434;SDS011;204;48.942;9.256;2023-07-08T02:17:20;8.43;;;7.50;;
434;SDS011;204;48.942;9.256;2023-07-08T02:19:45;9.67;;;6.87;;
434;SDS011;204;48.942;9.256;2023-07-08T02:22:11;9.90;;;7.37;;
434;SDS011;204;48.942;9.256;2023-07-08T02:24:36;10.40;;;7.43;;
434;SDS011;204;48.942;9.256;2023-07-08T02:27:02;8.93;;;7.60;;
434;SDS011;204;48.942;9.256;2023-07-08T02:29:28;8.83;;;7.17;;
434;SDS011;204;48.942;9.256;2023-07-08T02:31:54;9.50;;;7.93;;
434;SDS011;204;48.942;9.256;2023-07-08T02:34:19;7.80;;;7.40;;
434;SDS011;204;48.942;9.256;2023-07-08T02:36:45;8.60;;;7.10;;
434;SDS011;204;48.942;9.256;2023-07-08T02:39:11;10.63;;;7.10;;
434;SDS011;204;48.942;9.256;2023-07-08T02:41:37;10.40;;;7.93;;
434;SDS011;204;48.942;9.256;2023-07-08T02:44:03;8.43;;;6.80;;
434;SDS011;204;48.942;9.256;2023-07-08T02:46:28;9.03;;;7.50;;
434;SDS011;204;48.942;9.256;2023-07-08T02:48:54;8.10;;;7.10;;
434;SDS011;204;48.942;9.256;2023-07-08T02:51:19;11.10;;;7.53;;
434;SDS011;204;48.942;9.256;2023-07-08T02:53:46;9.20;;;7.20;;
434;SDS011;204;48.942;9.256;2023-07-08T02:56:14;8.20;;;6.93;;
434;SDS011;204;48.942;9.256;2023-07-08T02:58:40;10.00;;;7.20;;
434;SDS011;204;48.942;9.256;2023-07-08T03:01:05;10.27;;;7.63;;
434;SDS011;204;48.942;9.256;2023-07-08T03:03:31;8.30;;;7.27;;
434;SDS011;204;48.942;9.256;2023-07-08T03:05:59;11.00;;;7.83;;
434;SDS011;204;48.942;9.256;2023-07-08T03:08:27;14.20;;;8.00;;
434;SDS011;204;48.942;9.256;2023-07-08T03:10:55;9.50;;;7.60;;
434;SDS011;204;48.942;9.256;2023-07-08T03:13:22;9.60;;;7.13;;
434;SDS011;204;48.942;9.256;2023-07-08T03:15:48;6.47;;;5.60;;
434;SDS011;204;48.942;9.256;2023-07-08T03:18:14;7.97;;;6.40;;
434;SDS011;204;48.942;9.256;2023-07-08T03:20:40;8.60;;;6.20;;
434;SDS011;204;48.942;9.256;2023-07-08T03:23:06;9.17;;;6.80;;
434;SDS011;204;48.942;9.256;2023-07-08T03:25:31;9.93;;;7.67;;
434;SDS011;204;48.942;9.256;2023-07-08T03:28:00;10.00;;;6.87;;
434;SDS011;204;48.942;9.256;2023-07-08T03:30:26;9.53;;;7.50;;
434;SDS011;204;48.942;9.256;2023-07-08T03:32:52;12.73;;;8.73;;
434;SDS011;204;48.942;9.256;2023-07-08T03:35:20;9.63;;;7.87;;
434;SDS011;204;48.942;9.256;2023-07-08T03:37:47;8.30;;;7.00;;
434;SDS011;204;48.942;9.256;2023-07-08T03:40:12;10.10;;;7.80;;
434;SDS011;204;48.942;9.256;2023-07-08T03:42:39;7.30;;;6.50;;
434;SDS011;204;48.942;9.256;2023-07-08T03:45:04;12.80;;;7.20;;
434;SDS011;204;48.942;9.256;2023-07-08T03:47:30;8.33;;;6.87;;
434;SDS011;204;48.942;9.256;2023-07-08T03:49:56;11.70;;;7.13;;
434;SDS011;204;48.942;9.256;2023-07-08T03:52:21;7.10;;;6.50;;
434;SDS011;204;48.942;9.256;2023-07-08T03:54:47;7.60;;;6.40;;
434;SDS011;204;48.942;9.256;2023-07-08T03:57:12;9.53;;;6.30;;
434;SDS011;204;48.942;9.256;2023-07-08T03:59:38;10.27;;;6.60;;
434;SDS011;204;48.942;9.256;2023-07-08T04:02:03;10.23;;;7.50;;
434;SDS011;204;48.942;9.256;2023-07-08T04:04:29;9.60;;;6.60;;
434;SDS011;204;48.942;9.256;2023-07-08T04:06:55;10.40;;;7.97;;
434;SDS011;204;48.942;9.256;2023-07-08T04:09:20;8.30;;;6.97;;
434;SDS011;204;48.942;9.256;2023-07-08T04:11:46;7.80;;;7.40;;
434;SDS011;204;48.942;9.256;2023-07-08T04:14:12;8.00;;;7.10;;
434;SDS011;204;48.942;9.256;2023-07-08T04:16:45;8.53;;;6.80;;
434;SDS011;204;48.942;9.256;2023-07-08T04:19:17;7.43;;;6.97;;
434;SDS011;204;48.942;9.256;2023-07-08T04:21:43;9.50;;;6.07;;
434;SDS011;204;48.942;9.256;2023-07-08T04:24:10;8.47;;;6.77;;
434;SDS011;204;48.942;9.256;2023-07-08T04:26:37;8.50;;;7.43;;
434;SDS011;204;48.942;9.256;2023-07-08T04:29:05;9.67;;;6.57;;
434;SDS011;204;48.942;9.256;2023-07-08T04:31:41;7.57;;;6.30;;
434;SDS011;204;48.942;9.256;2023-07-08T04:34:07;7.77;;;6.90;;
434;SDS011;204;48.942;9.256;2023-07-08T04:36:34;10.47;;;7.07;;
434;SDS011;204;48.942;9.256;2023-07-08T04:39:00;11.30;;;7.90;;
434;SDS011;204;48.942;9.256;2023-07-08T04:41:27;9.03;;;7.47;;
434;SDS011;204;48.942;9.256;2023-07-08T04:43:53;9.60;;;7.03;;
434;SDS011;204;48.942;9.256;2023-07-08T04:46:20;9.03;;;6.97;;
434;SDS011;204;48.942;9.256;2023-07-08T04:48:54;11.53;;;6.87;;
434;SDS011;204;48.942;9.256;2023-07-08T04:51:20;7.47;;;6.77;;
434;SDS011;204;48.942;9.256;2023-07-08T04:53:46;11.90;;;7.27;;
434;SDS011;204;48.942;9.256;2023-07-08T04:56:11;10.57;;;7.70;;
434;SDS011;204;48.942;9.256;2023-07-08T04:58:38;8.23;;;6.70;;
434;SDS011;204;48.942;9.256;2023-07-08T05:01:03;9.50;;;6.17;;
434;SDS011;204;48.942;9.256;2023-07-08T05:03:29;7.37;;;5.93;;
434;SDS011;204;48.942;9.256;2023-07-08T05:05:54;7.83;;;5.87;;
434;SDS011;204;48.942;9.256;2023-07-08T05:08:20;7.73;;;6.47;;
434;SDS011;204;48.942;9.256;2023-07-08T05:10:46;6.23;;;5.30;;
434;SDS011;204;48.942;9.256;2023-07-08T05:13:11;7.83;;;6.70;;
434;SDS011;204;48.942;9.256;2023-07-08T05:15:37;8.53;;;7.03;;
434;SDS011;204;48.942;9.256;2023-07-08T05:18:02;8.97;;;6.77;;
434;SDS011;204;48.942;9.256;2023-07-08T05:20:28;8.67;;;6.43;;
434;SDS011;204;48.942;9.256;2023-07-08T05:22:57;9.40;;;6.70;;
434;SDS011;204;48.942;9.256;2023-07-08T05:25:23;7.93;;;6.80;;
434;SDS011;204;48.942;9.256;2023-07-08T05:27:49;8.40;;;7.00;;
434;SDS011;204;48.942;9.256;2023-07-08T05:30:16;7.20;;;6.17;;
434;SDS011;204;48.942;9.256;2023-07-08T05:32:43;8.30;;;7.60;;
434;SDS011;204;48.942;9.256;2023-07-08T05:35:09;9.77;;;8.27;;
434;SDS011;204;48.942;9.256;2023-07-08T05:37:35;9.20;;;7.97;;
434;SDS011;204;48.942;9.256;2023-07-08T05:40:00;9.57;;;7.53;;
434;SDS011;204;48.942;9.256;2023-07-08T05:42:29;10.47;;;8.03;;
434;SDS011;204;48.942;9.256;2023-07-08T05:44:55;8.73;;;7.30;;
434;SDS011;204;48.942;9.256;2023-07-08T05:47:20;9.60;;;7.20;;
434;SDS011;204;48.942;9.256;2023-07-08T05:49:46;7.73;;;6.97;;
434;SDS011;204;48.942;9.256;2023-07-08T05:52:12;8.13;;;7.33;;
434;SDS011;204;48.942;9.256;2023-07-08T05:54:38;8.83;;;7.47;;
434;SDS011;204;48.942;9.256;2023-07-08T05:57:06;10.60;;;6.53;;
434;SDS011;204;48.942;9.256;2023-07-08T05:59:33;9.20;;;6.87;;
434;SDS011;204;48.942;9.256;2023-07-08T06:01:59;9.90;;;5.73;;
434;SDS011;204;48.942;9.256;2023-07-08T06:04:26;10.70;;;7.67;;
434;SDS011;204;48.942;9.256;2023-07-08T06:06:52;8.43;;;6.80;;
434;SDS011;204;48.942;9.256;2023-07-08T06:09:18;10.00;;;7.00;;
434;SDS011;204;48.942;9.256;2023-07-08T06:11:44;9.17;;;6.57;;
434;SDS011;204;48.942;9.256;2023-07-08T06:14:10;8.03;;;6.53;;
434;SDS011;204;48.942;9.256;2023-07-08T06:16:35;8.80;;;6.60;;
434;SDS011;204;48.942;9.256;2023-07-08T06:19:01;6.40;;;6.00;;
434;SDS011;204;48.942;9.256;2023-07-08T06:21:27;11.23;;;7.10;;
434;SDS011;204;48.942;9.256;2023-07-08T06:23:52;7.10;;;6.00;;
434;SDS011;204;48.942;9.256;2023-07-08T06:26:18;7.77;;;6.60;;
434;SDS011;204;48.942;9.256;2023-07-08T06:28:44;7.80;;;6.03;;
434;SDS011;204;48.942;9.256;2023-07-08T06:31:09;7.70;;;6.73;;
434;SDS011;204;48.942;9.256;2023-07-08T06:33:35;9.47;;;7.10;;
434;SDS011;204;48.942;9.256;2023-07-08T06:36:01;7.17;;;6.50;;
434;SDS011;204;48.942;9.256;2023-07-08T06:38:27;23.43;;;7.23;;
434;SDS011;204;48.942;9.256;2023-07-08T06:40:52;7.17;;;6.43;;
434;SDS011;204;48.942;9.256;2023-07-08T06:43:18;7.73;;;7.30;;
434;SDS011;204;48.942;9.256;2023-07-08T06:45:43;8.20;;;6.20;;
434;SDS011;204;48.942;9.256;2023-07-08T06:48:09;7.77;;;6.13;;
434;SDS011;204;48.942;9.256;2023-07-08T06:50:35;8.07;;;6.73;;
434;SDS011;204;48.942;9.256;2023-07-08T06:53:01;9.00;;;6.20;;
434;SDS011;204;48.942;9.256;2023-07-08T06:55:27;8.93;;;7.70;;
434;SDS011;204;48.942;9.256;2023-07-08T06:57:55;6.93;;;6.40;;
434;SDS011;204;48.942;9.256;2023-07-08T07:00:21;7.57;;;6.63;;
434;SDS011;204;48.942;9.256;2023-07-08T07:02:46;8.67;;;6.03;;
434;SDS011;204;48.942;9.256;2023-07-08T07:05:12;8.37;;;7.07;;
434;SDS011;204;48.942;9.256;2023-07-08T07:07:37;8.17;;;6.80;;
434;SDS011;204;48.942;9.256;2023-07-08T07:10:03;7.70;;;6.23;;
434;SDS011;204;48.942;9.256;2023-07-08T07:12:29;7.40;;;6.40;;
434;SDS011;204;48.942;9.256;2023-07-08T07:14:55;10.57;;;7.23;;
434;SDS011;204;48.942;9.256;2023-07-08T07:17:21;8.10;;;6.60;;
434;SDS011;204;48.942;9.256;2023-07-08T07:19:48;8.63;;;6.40;;
434;SDS011;204;48.942;9.256;2023-07-08T07:22:14;7.77;;;7.37;;
434;SDS011;204;48.942;9.256;2023-07-08T07:24:40;7.83;;;6.60;;
434;SDS011;204;48.942;9.256;2023-07-08T07:27:05;8.50;;;6.73;;
434;SDS011;204;48.942;9.256;2023-07-08T07:29:42;8.10;;;6.60;;
434;SDS011;204;48.942;9.256;2023-07-08T07:32:10;7.33;;;6.90;;
434;SDS011;204;48.942;9.256;2023-07-08T07:34:37;9.27;;;7.23;;
434;SDS011;204;48.942;9.256;2023-07-08T07:37:03;8.73;;;7.20;;
434;SDS011;204;48.942;9.256;2023-07-08T07:39:30;7.67;;;6.50;;
434;SDS011;204;48.942;9.256;2023-07-08T07:41:55;8.00;;;7.33;;
434;SDS011;204;48.942;9.256;2023-07-08T07:44:21;13.90;;;6.73;;
434;SDS011;204;48.942;9.256;2023-07-08T07:46:47;8.10;;;6.83;;
434;SDS011;204;48.942;9.256;2023-07-08T07:49:12;8.90;;;6.30;;
434;SDS011;204;48.942;9.256;2023-07-08T07:51:38;10.17;;;6.83;;
434;SDS011;204;48.942;9.256;2023-07-08T07:54:04;6.70;;;6.00;;
434;SDS011;204;48.942;9.256;2023-07-08T07:56:30;6.90;;;6.30;;
434;SDS011;204;48.942;9.256;2023-07-08T07:58:55;6.20;;;5.90;;
434;SDS011;204;48.942;9.256;2023-07-08T08:01:21;7.20;;;5.73;;
434;SDS011;204;48.942;9.256;2023-07-08T08:03:48;7.80;;;6.40;;
434;SDS011;204;48.942;9.256;2023-07-08T08:06:17;10.47;;;6.83;;
434;SDS011;204;48.942;9.256;2023-07-08T08:08:43;8.17;;;6.27;;
434;SDS011;204;48.942;9.256;2023-07-08T08:11:10;9.67;;;6.63;;
434;SDS011;204;48.942;9.256;2023-07-08T08:13:36;6.90;;;5.90;;
434;SDS011;204;48.942;9.256;2023-07-08T08:16:02;9.57;;;6.00;;
434;SDS011;204;48.942;9.256;2023-07-08T08:18:28;6.63;;;5.60;;
434;SDS011;204;48.942;9.256;2023-07-08T08:20:54;10.40;;;6.43;;
434;SDS011;204;48.942;9.256;2023-07-08T08:23:19;5.60;;;5.30;;
434;SDS011;204;48.942;9.256;2023-07-08T08:25:45;9.00;;;6.20;;
434;SDS011;204;48.942;9.256;2023-07-08T08:28:10;7.13;;;6.20;;
434;SDS011;204;48.942;9.256;2023-07-08T08:30:36;7.97;;;6.40;;
434;SDS011;204;48.942;9.256;2023-07-08T08:33:02;6.87;;;5.97;;
434;SDS011;204;48.942;9.256;2023-07-08T08:35:27;8.00;;;6.27;;
434;SDS011;204;48.942;9.256;2023-07-08T08:37:53;7.03;;;5.50;;
434;SDS011;204;48.942;9.256;2023-07-08T08:40:19;5.53;;;5.20;;
434;SDS011;204;48.942;9.256;2023-07-08T08:43:06;8.57;;;5.73;;
434;SDS011;204;48.942;9.256;2023-07-08T08:45:42;9.60;;;5.90;;
434;SDS011;204;48.942;9.256;2023-07-08T08:48:18;7.47;;;7.07;;
434;SDS011;204;48.942;9.256;2023-07-08T08:50:52;7.27;;;5.70;;
434;SDS011;204;48.942;9.256;2023-07-08T08:53:25;8.07;;;6.40;;
434;SDS011;204;48.942;9.256;2023-07-08T08:55:54;8.67;;;5.90;;
434;SDS011;204;48.942;9.256;2023-07-08T09:01:16;10.03;;;6.10;;
434;SDS011;204;48.942;9.256;2023-07-08T09:08:40;6.13;;;5.67;;
434;SDS011;204;48.942;9.256;2023-07-08T09:13:51;6.40;;;6.03;;
434;SDS011;204;48.942;9.256;2023-07-08T09:18:59;6.83;;;5.40;;
434;SDS011;204;48.942;9.256;2023-07-08T09:21:40;8.93;;;5.10;;
434;SDS011;204;48.942;9.256;2023-07-08T09:24:23;6.13;;;5.27;;
434;SDS011;204;48.942;9.256;2023-07-08T09:26:54;5.83;;;5.53;;
434;SDS011;204;48.942;9.256;2023-07-08T09:29:23;7.50;;;5.17;;
434;SDS011;204;48.942;9.256;2023-07-08T09:31:49;4.43;;;4.13;;
434;SDS011;204;48.942;9.256;2023-07-08T09:34:15;6.13;;;5.10;;
434;SDS011;204;48.942;9.256;2023-07-08T09:36:43;6.33;;;4.60;;
434;SDS011;204;48.942;9.256;2023-07-08T09:39:15;4.37;;;4.00;;
434;SDS011;204;48.942;9.256;2023-07-08T09:41:43;4.73;;;4.43;;
434;SDS011;204;48.942;9.256;2023-07-08T09:46:54;8.60;;;4.40;;
434;SDS011;204;48.942;9.256;2023-07-08T09:49:32;4.67;;;4.10;;
434;SDS011;204;48.942;9.256;2023-07-08T09:52:01;6.90;;;4.80;;
434;SDS011;204;48.942;9.256;2023-07-08T09:54:29;5.50;;;4.73;;
434;SDS011;204;48.942;9.256;2023-07-08T09:56:58;6.60;;;3.67;;
434;SDS011;204;48.942;9.256;2023-07-08T09:59:48;5.13;;;3.70;;
434;SDS011;204;48.942;9.256;2023-07-08T10:05:06;6.17;;;4.73;;
434;SDS011;204;48.942;9.256;2023-07-08T10:07:38;5.47;;;4.70;;
434;SDS011;204;48.942;9.256;2023-07-08T10:10:06;5.10;;;4.80;;
434;SDS011;204;48.942;9.256;2023-07-08T10:12:36;7.73;;;4.53;;
434;SDS011;204;48.942;9.256;2023-07-08T10:15:16;4.80;;;4.20;;
434;SDS011;204;48.942;9.256;2023-07-08T10:17:47;5.10;;;3.80;;
434;SDS011;204;48.942;9.256;2023-07-08T10:20:13;4.83;;;3.93;;
434;SDS011;204;48.942;9.256;2023-07-08T10:25:28;7.10;;;4.10;;
434;SDS011;204;48.942;9.256;2023-07-08T10:28:13;5.30;;;4.13;;
434;SDS011;204;48.942;9.256;2023-07-08T10:31:02;5.27;;;3.80;;
434;SDS011;204;48.942;9.256;2023-07-08T10:33:42;5.57;;;3.67;;
434;SDS011;204;48.942;9.256;2023-07-08T10:47:28;2.93;;;2.73;;
434;SDS011;204;48.942;9.256;2023-07-08T10:52:55;4.50;;;3.70;;
434;SDS011;204;48.942;9.256;2023-07-08T10:55:46;5.57;;;4.40;;
434;SDS011;204;48.942;9.256;2023-07-08T10:58:19;4.17;;;3.10;;
434;SDS011;204;48.942;9.256;2023-07-08T11:06:55;6.10;;;3.90;;
434;SDS011;204;48.942;9.256;2023-07-08T11:09:34;6.13;;;4.50;;
434;SDS011;204;48.942;9.256;2023-07-08T11:12:11;5.67;;;4.00;;
434;SDS011;204;48.942;9.256;2023-07-08T11:14:59;8.30;;;4.30;;
434;SDS011;204;48.942;9.256;2023-07-08T11:17:29;3.53;;;3.30;;
434;SDS011;204;48.942;9.256;2023-07-08T11:22:46;5.03;;;3.30;;
434;SDS011;204;48.942;9.256;2023-07-08T11:25:27;5.10;;;3.77;;
434;SDS011;204;48.942;9.256;2023-07-08T11:27:56;3.63;;;3.33;;
434;SDS011;204;48.942;9.256;2023-07-08T11:30:28;9.00;;;4.20;;
434;SDS011;204;48.942;9.256;2023-07-08T11:33:00;4.30;;;3.50;;
434;SDS011;204;48.942;9.256;2023-07-08T11:35:33;4.67;;;3.87;;
434;SDS011;204;48.942;9.256;2023-07-08T11:38:13;5.43;;;4.00;;
434;SDS011;204;48.942;9.256;2023-07-08T11:43:21;4.07;;;3.50;;
434;SDS011;204;48.942;9.256;2023-07-08T11:45:50;4.60;;;3.80;;
434;SDS011;204;48.942;9.256;2023-07-08T11:48:21;4.63;;;3.80;;
434;SDS011;204;48.942;9.256;2023-07-08T11:50:53;3.63;;;3.47;;
434;SDS011;204;48.942;9.256;2023-07-08T12:01:17;3.80;;;2.70;;
434;SDS011;204;48.942;9.256;2023-07-08T12:04:00;4.63;;;2.90;;
434;SDS011;204;48.942;9.256;2023-07-08T12:09:12;4.83;;;3.43;;
434;SDS011;204;48.942;9.256;2023-07-08T12:11:59;3.93;;;2.60;;
434;SDS011;204;48.942;9.256;2023-07-08T12:14:27;3.57;;;3.00;;
434;SDS011;204;48.942;9.256;2023-07-08T12:16:54;2.70;;;2.57;;
434;SDS011;204;48.942;9.256;2023-07-08T12:19:21;3.20;;;3.00;;
434;SDS011;204;48.942;9.256;2023-07-08T12:21:50;4.77;;;3.50;;
434;SDS011;204;48.942;9.256;2023-07-08T12:24:17;5.37;;;3.27;;
434;SDS011;204;48.942;9.256;2023-07-08T12:26:43;4.97;;;2.97;;
434;SDS011;204;48.942;9.256;2023-07-08T12:29:12;3.07;;;2.20;;
434;SDS011;204;48.942;9.256;2023-07-08T12:31:41;3.50;;;2.63;;
434;SDS011;204;48.942;9.256;2023-07-08T12:34:10;3.07;;;2.00;;
434;SDS011;204;48.942;9.256;2023-07-08T12:36:38;2.37;;;2.17;;
434;SDS011;204;48.942;9.256;2023-07-08T12:39:04;2.57;;;2.37;;
434;SDS011;204;48.942;9.256;2023-07-08T12:41:31;2.70;;;2.47;;
434;SDS011;204;48.942;9.256;2023-07-08T12:43:59;3.03;;;2.50;;
434;SDS011;204;48.942;9.256;2023-07-08T12:46:27;2.30;;;2.13;;
434;SDS011;204;48.942;9.256;2023-07-08T12:48:53;2.50;;;2.30;;
434;SDS011;204;48.942;9.256;2023-07-08T12:51:20;4.23;;;2.53;;
434;SDS011;204;48.942;9.256;2023-07-08T12:53:49;2.13;;;1.90;;
434;SDS011;204;48.942;9.256;2023-07-08T12:56:16;2.67;;;2.30;;
434;SDS011;204;48.942;9.256;2023-07-08T12:58:44;3.93;;;2.87;;
434;SDS011;204;48.942;9.256;2023-07-08T13:01:15;3.17;;;2.20;;
434;SDS011;204;48.942;9.256;2023-07-08T13:03:47;2.73;;;2.27;;
434;SDS011;204;48.942;9.256;2023-07-08T13:06:16;3.80;;;2.43;;
434;SDS011;204;48.942;9.256;2023-07-08T13:08:45;2.73;;;2.30;;
434;SDS011;204;48.942;9.256;2023-07-08T13:11:11;2.67;;;2.33;;
434;SDS011;204;48.942;9.256;2023-07-08T13:13:45;2.30;;;2.10;;
434;SDS011;204;48.942;9.256;2023-07-08T13:16:15;5.03;;;2.43;;
434;SDS011;204;48.942;9.256;2023-07-08T13:18:41;3.13;;;2.30;;
434;SDS011;204;48.942;9.256;2023-07-08T13:21:09;2.50;;;2.20;;
434;SDS011;204;48.942;9.256;2023-07-08T13:23:37;3.93;;;2.53;;
434;SDS011;204;48.942;9.256;2023-07-08T13:26:16;2.80;;;2.27;;
434;SDS011;204;48.942;9.256;2023-07-08T13:28:44;3.00;;;2.80;;
434;SDS011;204;48.942;9.256;2023-07-08T13:33:52;2.40;;;2.17;;
434;SDS011;204;48.942;9.256;2023-07-08T13:36:21;3.07;;;2.50;;
434;SDS011;204;48.942;9.256;2023-07-08T13:38:48;3.10;;;2.60;;
434;SDS011;204;48.942;9.256;2023-07-08T13:41:19;2.83;;;2.50;;
434;SDS011;204;48.942;9.256;2023-07-08T13:43:48;2.57;;;2.30;;
434;SDS011;204;48.942;9.256;2023-07-08T13:46:34;3.03;;;2.70;;
434;SDS011;204;48.942;9.256;2023-07-08T13:49:47;3.40;;;2.70;;
434;SDS011;204;48.942;9.256;2023-07-08T13:54:43;2.90;;;2.23;;
434;SDS011;204;48.942;9.256;2023-07-08T13:57:13;3.20;;;2.40;;
434;SDS011;204;48.942;9.256;2023-07-08T13:59:41;2.53;;;2.00;;
434;SDS011;204;48.942;9.256;2023-07-08T14:02:20;2.30;;;2.10;;
434;SDS011;204;48.942;9.256;2023-07-08T14:04:48;3.80;;;2.40;;
434;SDS011;204;48.942;9.256;2023-07-08T14:07:19;2.57;;;2.37;;
434;SDS011;204;48.942;9.256;2023-07-08T14:09:47;3.47;;;2.87;;
434;SDS011;204;48.942;9.256;2023-07-08T14:12:12;2.30;;;2.17;;
434;SDS011;204;48.942;9.256;2023-07-08T14:14:38;4.70;;;2.80;;
434;SDS011;204;48.942;9.256;2023-07-08T14:17:04;3.10;;;2.50;;
434;SDS011;204;48.942;9.256;2023-07-08T14:19:33;2.73;;;2.53;;
434;SDS011;204;48.942;9.256;2023-07-08T14:22:01;3.20;;;2.43;;
434;SDS011;204;48.942;9.256;2023-07-08T14:24:39;3.13;;;2.50;;
434;SDS011;204;48.942;9.256;2023-07-08T14:27:09;4.53;;;2.80;;
434;SDS011;204;48.942;9.256;2023-07-08T14:29:40;3.37;;;2.53;;
434;SDS011;204;48.942;9.256;2023-07-08T14:32:23;3.83;;;2.47;;
434;SDS011;204;48.942;9.256;2023-07-08T14:35:17;1.93;;;1.83;;
434;SDS011;204;48.942;9.256;2023-07-08T14:37:46;1.93;;;1.90;;
434;SDS011;204;48.942;9.256;2023-07-08T14:40:31;2.90;;;2.30;;
434;SDS011;204;48.942;9.256;2023-07-08T14:43:06;2.23;;;2.10;;
434;SDS011;204;48.942;9.256;2023-07-08T14:45:41;3.93;;;2.80;;
434;SDS011;204;48.942;9.256;2023-07-08T14:48:13;2.43;;;2.20;;
434;SDS011;204;48.942;9.256;2023-07-08T14:50:39;3.33;;;2.53;;
434;SDS011;204;48.942;9.256;2023-07-08T14:53:04;3.20;;;2.43;;
434;SDS011;204;48.942;9.256;2023-07-08T14:55:30;2.83;;;2.70;;
434;SDS011;204;48.942;9.256;2023-07-08T14:57:56;4.17;;;1.97;;
434;SDS011;204;48.942;9.256;2023-07-08T15:00:22;2.50;;;2.30;;
434;SDS011;204;48.942;9.256;2023-07-08T15:02:49;2.00;;;1.90;;
434;SDS011;204;48.942;9.256;2023-07-08T15:05:21;2.53;;;1.90;;
434;SDS011;204;48.942;9.256;2023-07-08T15:07:53;3.53;;;2.30;;
434;SDS011;204;48.942;9.256;2023-07-08T15:10:20;2.40;;;1.97;;
434;SDS011;204;48.942;9.256;2023-07-08T15:12:49;4.33;;;2.63;;
434;SDS011;204;48.942;9.256;2023-07-08T15:15:35;2.87;;;2.17;;
434;SDS011;204;48.942;9.256;2023-07-08T15:18:01;2.80;;;2.60;;
434;SDS011;204;48.942;9.256;2023-07-08T15:20:31;2.60;;;2.27;;
434;SDS011;204;48.942;9.256;2023-07-08T15:22:57;2.80;;;2.67;;
434;SDS011;204;48.942;9.256;2023-07-08T15:25:23;3.00;;;2.80;;
434;SDS011;204;48.942;9.256;2023-07-08T15:27:50;4.57;;;3.37;;
434;SDS011;204;48.942;9.256;2023-07-08T15:30:19;4.47;;;2.10;;
434;SDS011;204;48.942;9.256;2023-07-08T15:32:46;5.43;;;2.70;;
434;SDS011;204;48.942;9.256;2023-07-08T15:35:13;3.27;;;2.13;;
434;SDS011;204;48.942;9.256;2023-07-08T15:37:43;9.10;;;3.07;;
434;SDS011;204;48.942;9.256;2023-07-08T15:40:10;4.77;;;2.90;;
434;SDS011;204;48.942;9.256;2023-07-08T15:42:38;4.70;;;2.47;;
434;SDS011;204;48.942;9.256;2023-07-08T15:45:12;3.37;;;2.53;;
434;SDS011;204;48.942;9.256;2023-07-08T15:47:58;3.27;;;2.40;;
434;SDS011;204;48.942;9.256;2023-07-08T15:50:24;4.50;;;2.10;;
434;SDS011;204;48.942;9.256;2023-07-08T15:52:52;5.07;;;2.73;;
434;SDS011;204;48.942;9.256;2023-07-08T15:55:26;2.50;;;2.10;;
434;SDS011;204;48.942;9.256;2023-07-08T16:00:26;3.00;;;2.40;;
434;SDS011;204;48.942;9.256;2023-07-08T16:02:55;2.40;;;2.17;;
434;SDS011;204;48.942;9.256;2023-07-08T16:05:24;4.20;;;2.80;;
434;SDS011;204;48.942;9.256;2023-07-08T16:07:51;2.30;;;2.07;;
434;SDS011;204;48.942;9.256;2023-07-08T16:10:18;2.47;;;2.27;;
434;SDS011;204;48.942;9.256;2023-07-08T16:12:45;5.30;;;2.70;;
434;SDS011;204;48.942;9.256;2023-07-08T16:17:53;5.10;;;3.20;;
434;SDS011;204;48.942;9.256;2023-07-08T16:20:20;5.33;;;3.43;;
434;SDS011;204;48.942;9.256;2023-07-08T16:22:47;5.10;;;2.60;;
434;SDS011;204;48.942;9.256;2023-07-08T16:25:14;3.50;;;2.77;;
434;SDS011;204;48.942;9.256;2023-07-08T16:27:44;5.53;;;2.63;;
434;SDS011;204;48.942;9.256;2023-07-08T16:30:13;3.40;;;2.57;;
434;SDS011;204;48.942;9.256;2023-07-08T16:32:41;2.80;;;2.37;;
434;SDS011;204;48.942;9.256;2023-07-08T16:35:08;3.77;;;2.63;;
434;SDS011;204;48.942;9.256;2023-07-08T16:37:36;2.80;;;2.20;;
434;SDS011;204;48.942;9.256;2023-07-08T16:40:02;3.90;;;2.97;;
434;SDS011;204;48.942;9.256;2023-07-08T16:42:28;3.23;;;2.60;;
434;SDS011;204;48.942;9.256;2023-07-08T16:44:54;3.70;;;2.70;;
434;SDS011;204;48.942;9.256;2023-07-08T16:47:20;5.50;;;2.70;;
434;SDS011;204;48.942;9.256;2023-07-08T16:49:45;3.63;;;3.17;;
434;SDS011;204;48.942;9.256;2023-07-08T16:52:12;4.20;;;3.10;;
434;SDS011;204;48.942;9.256;2023-07-08T16:54:39;3.10;;;2.90;;
434;SDS011;204;48.942;9.256;2023-07-08T16:57:07;5.43;;;2.63;;
434;SDS011;204;48.942;9.256;2023-07-08T16:59:35;3.50;;;2.63;;
434;SDS011;204;48.942;9.256;2023-07-08T17:02:01;2.07;;;1.93;;
434;SDS011;204;48.942;9.256;2023-07-08T17:04:34;5.17;;;2.70;;
434;SDS011;204;48.942;9.256;2023-07-08T17:06:59;3.10;;;2.90;;